Mansehra Weather



Mansehra's Current Weather

Temprature 18.13o overcast clouds

overcast clouds

Rain: 0 %

Min Temprature18.13o
Max Temprature18.13o
Humidity51
Wind Speed1.24 m/h
Sun Rise06:14:16
Sun Set17:30:20
Current Time: 18-Oct-2019 16:06:02
Lat/Lon: 34.33, 73.2




Mansehra's Geo Location



Mansehra's Weather Forecast

Time Overall Temp Min Temp Max Temp Humidity Wind Speed Rain
18-Oct-2019 (Fri)
17:00:00 overcast clouds 15.770 15.770 18.130 51 1.24 m/h 0 %
20:00:00 few clouds 12.480 12.480 14.250 53 1.65 m/h 0 %
23:00:00 clear sky 12.330 12.330 13.508 44 1.94 m/h 0 %
19-Oct-2019 (Sat)
02:00:00 scattered clouds 12.410 12.410 12.998 41 1.87 m/h 0 %
05:00:00 broken clouds 12.793 12.793 12.793 38 2.29 m/h 0 %
08:00:00 overcast clouds 16.321 16.321 16.321 40 1.93 m/h 0 %
11:00:00 overcast clouds 21.350 21.350 21.350 30 1.01 m/h 0 %
14:00:00 overcast clouds 21.706 21.706 21.706 30 3.14 m/h 0 %
17:00:00 broken clouds 15.692 15.692 15.692 60 2.59 m/h 0 %
20:00:00 clear sky 13.208 13.208 13.208 55 1.98 m/h 0 %
23:00:00 clear sky 13.137 13.137 13.137 46 2.4 m/h 0 %
20-Oct-2019 (Sun)
02:00:00 clear sky 12.657 12.657 12.657 44 2.33 m/h 0 %
05:00:00 clear sky 12.224 12.224 12.224 43 2.4 m/h 0 %
08:00:00 clear sky 16.232 16.232 16.232 41 1.95 m/h 0 %
11:00:00 clear sky 21.850 21.850 21.850 29 1.19 m/h 0 %
14:00:00 clear sky 22.642 22.642 22.642 25 2.34 m/h 0 %
17:00:00 scattered clouds 17.978 17.978 17.978 44 1.1 m/h 0 %
20:00:00 overcast clouds 14.812 14.812 14.812 47 1.26 m/h 0 %
23:00:00 overcast clouds 14.247 14.247 14.247 44 1.59 m/h 0 %
21-Oct-2019 (Mon)
02:00:00 broken clouds 13.190 13.190 13.190 44 1.91 m/h 0 %
05:00:00 scattered clouds 12.431 12.431 12.431 44 1.97 m/h 0 %
08:00:00 clear sky 16.399 16.399 16.399 42 2 m/h 0 %
11:00:00 clear sky 21.907 21.907 21.907 27 1.32 m/h 0 %
14:00:00 clear sky 22.485 22.485 22.485 25 2.4 m/h 0 %
17:00:00 clear sky 18.084 18.084 18.084 45 1.67 m/h 0 %
20:00:00 clear sky 14.194 14.194 14.194 51 1.19 m/h 0 %
23:00:00 clear sky 13.430 13.430 13.430 46 1.72 m/h 0 %
22-Oct-2019 (Tue)
02:00:00 scattered clouds 13.116 13.116 13.116 42 2.22 m/h 0 %
05:00:00 broken clouds 12.799 12.799 12.799 38 2.27 m/h 0 %
08:00:00 broken clouds 16.402 16.402 16.402 36 2.06 m/h 0 %
11:00:00 scattered clouds 22.339 22.339 22.339 25 0.84 m/h 0 %
14:00:00 broken clouds 22.969 22.969 22.969 22 2.6 m/h 0 %
17:00:00 broken clouds 17.742 17.742 17.742 46 1.64 m/h 0 %
20:00:00 overcast clouds 15.450 15.450 15.450 50 0.42 m/h 0 %
23:00:00 overcast clouds 14.799 14.799 14.799 44 1.6 m/h 0 %
23-Oct-2019 (Wed)
02:00:00 light rain 13.946 13.946 13.946 46 1.6 m/h 19 %
05:00:00 light rain 13.367 13.367 13.367 55 2.69 m/h 62 %
08:00:00 light rain 14.469 14.469 14.469 49 4.46 m/h 38 %
11:00:00 light rain 19.275 19.275 19.275 35 2.46 m/h 13 %
14:00:00 overcast clouds 19.319 19.319 19.319 39 4.35 m/h 0 %

Famous Cities (61)